sensor_id;sensor_type;location;lat;lon;timestamp;pressure;altitude;pressure_sealevel;temperature;humidity
70909;BME280;58554;52.006;5.926;2023-04-15T00:02:13;100054.34;;;9.50;51.60
70909;BME280;58554;52.006;5.926;2023-04-15T00:04:40;100056.13;;;9.50;51.57
70909;BME280;58554;52.006;5.926;2023-04-15T00:07:06;100058.78;;;9.50;51.75
70909;BME280;58554;52.006;5.926;2023-04-15T00:09:35;100059.72;;;9.49;51.77
70909;BME280;58554;52.006;5.926;2023-04-15T00:12:02;100050.19;;;9.46;51.81
70909;BME280;58554;52.006;5.926;2023-04-15T00:14:29;100046.72;;;9.46;52.08
70909;BME280;58554;52.006;5.926;2023-04-15T00:16:56;100050.38;;;9.43;52.15
70909;BME280;58554;52.006;5.926;2023-04-15T00:19:22;100051.44;;;9.41;52.07
70909;BME280;58554;52.006;5.926;2023-04-15T00:21:49;100055.13;;;9.38;52.25
70909;BME280;58554;52.006;5.926;2023-04-15T00:24:16;100050.16;;;9.33;52.43
70909;BME280;58554;52.006;5.926;2023-04-15T00:26:45;100059.06;;;9.31;52.51
70909;BME280;58554;52.006;5.926;2023-04-15T00:29:12;100059.19;;;9.29;52.41
70909;BME280;58554;52.006;5.926;2023-04-15T00:31:38;100057.53;;;9.27;52.56
70909;BME280;58554;52.006;5.926;2023-04-15T00:34:05;100062.06;;;9.25;52.81
70909;BME280;58554;52.006;5.926;2023-04-15T00:36:32;100055.22;;;9.22;52.89
70909;BME280;58554;52.006;5.926;2023-04-15T00:38:58;100056.25;;;9.20;52.92
70909;BME280;58554;52.006;5.926;2023-04-15T00:41:25;100059.94;;;9.17;53.08
70909;BME280;58554;52.006;5.926;2023-04-15T00:43:54;100053.06;;;9.15;53.14
70909;BME280;58554;52.006;5.926;2023-04-15T00:46:21;100051.44;;;9.12;53.22
70909;BME280;58554;52.006;5.926;2023-04-15T00:48:49;100055.97;;;9.10;53.47
70909;BME280;58554;52.006;5.926;2023-04-15T00:51:16;100057.38;;;9.16;53.60
70909;BME280;58554;52.006;5.926;2023-04-15T00:53:42;100062.38;;;9.20;53.71
70909;BME280;58554;52.006;5.926;2023-04-15T00:56:09;100056.91;;;9.23;53.55
70909;BME280;58554;52.006;5.926;2023-04-15T00:58:35;100053.13;;;9.27;53.63
70909;BME280;58554;52.006;5.926;2023-04-15T01:01:05;100054.75;;;9.30;53.81
70909;BME280;58554;52.006;5.926;2023-04-15T01:03:31;100057.19;;;9.33;53.75
70909;BME280;58554;52.006;5.926;2023-04-15T01:05:59;100055.31;;;9.35;53.79
70909;BME280;58554;52.006;5.926;2023-04-15T01:08:26;100050.03;;;9.35;53.89
70909;BME280;58554;52.006;5.926;2023-04-15T01:10:53;100056.44;;;9.31;54.23
70909;BME280;58554;52.006;5.926;2023-04-15T01:13:22;100058.16;;;9.32;54.31
70909;BME280;58554;52.006;5.926;2023-04-15T01:15:49;100061.63;;;9.32;54.20
70909;BME280;58554;52.006;5.926;2023-04-15T01:18:19;100057.94;;;9.35;54.43
70909;BME280;58554;52.006;5.926;2023-04-15T01:20:46;100059.44;;;9.39;54.60
70909;BME280;58554;52.006;5.926;2023-04-15T01:23:13;100059.25;;;9.42;54.62
70909;BME280;58554;52.006;5.926;2023-04-15T01:25:42;100064.25;;;9.47;54.51
70909;BME280;58554;52.006;5.926;2023-04-15T01:28:10;100062.56;;;9.46;54.57
70909;BME280;58554;52.006;5.926;2023-04-15T01:30:36;100062.44;;;9.47;54.61
70909;BME280;58554;52.006;5.926;2023-04-15T01:33:03;100058.88;;;9.48;54.62
70909;BME280;58554;52.006;5.926;2023-04-15T01:35:29;100054.81;;;9.43;54.49
70909;BME280;58554;52.006;5.926;2023-04-15T01:38:02;100059.16;;;9.44;54.73
70909;BME280;58554;52.006;5.926;2023-04-15T01:40:30;100061.59;;;9.47;54.61
70909;BME280;58554;52.006;5.926;2023-04-15T01:42:59;100058.31;;;9.43;54.76
70909;BME280;58554;52.006;5.926;2023-04-15T01:45:26;100063.13;;;9.37;54.59
70909;BME280;58554;52.006;5.926;2023-04-15T01:47:53;100054.69;;;9.31;54.67
70909;BME280;58554;52.006;5.926;2023-04-15T01:50:20;100056.72;;;9.26;54.94
70909;BME280;58554;52.006;5.926;2023-04-15T01:52:46;100068.41;;;9.22;54.76
70909;BME280;58554;52.006;5.926;2023-04-15T01:55:13;100062.56;;;9.17;55.00
70909;BME280;58554;52.006;5.926;2023-04-15T01:57:39;100066.34;;;9.13;55.01
70909;BME280;58554;52.006;5.926;2023-04-15T02:00:10;100071.03;;;9.08;55.08
70909;BME280;58554;52.006;5.926;2023-04-15T02:02:37;100066.06;;;9.03;55.13
70909;BME280;58554;52.006;5.926;2023-04-15T02:05:05;100067.28;;;8.98;55.25
70909;BME280;58554;52.006;5.926;2023-04-15T02:07:32;100071.06;;;8.93;55.33
70909;BME280;58554;52.006;5.926;2023-04-15T02:09:58;100070.50;;;8.88;55.45
70909;BME280;58554;52.006;5.926;2023-04-15T02:12:25;100074.25;;;8.84;55.41
70909;BME280;58554;52.006;5.926;2023-04-15T02:14:51;100065.88;;;8.78;55.46
70909;BME280;58554;52.006;5.926;2023-04-15T02:17:20;100068.06;;;8.71;55.74
70909;BME280;58554;52.006;5.926;2023-04-15T02:19:47;100072.00;;;8.64;55.81
70909;BME280;58554;52.006;5.926;2023-04-15T02:22:13;100068.88;;;8.57;55.72
70909;BME280;58554;52.006;5.926;2023-04-15T02:24:40;100078.84;;;8.52;55.79
70909;BME280;58554;52.006;5.926;2023-04-15T02:27:06;100075.66;;;8.47;55.92
70909;BME280;58554;52.006;5.926;2023-04-15T02:29:32;100084.75;;;8.41;56.03
70909;BME280;58554;52.006;5.926;2023-04-15T02:31:59;100084.19;;;8.36;56.03
70909;BME280;58554;52.006;5.926;2023-04-15T02:34:28;100087.94;;;8.32;56.06
70909;BME280;58554;52.006;5.926;2023-04-15T02:36:54;100096.97;;;8.28;56.38
70909;BME280;58554;52.006;5.926;2023-04-15T02:39:21;100092.06;;;8.22;56.38
70909;BME280;58554;52.006;5.926;2023-04-15T02:41:49;100102.09;;;8.15;56.47
70909;BME280;58554;52.006;5.926;2023-04-15T02:44:15;100106.13;;;8.06;56.52
70909;BME280;58554;52.006;5.926;2023-04-15T02:46:42;100104.75;;;7.99;56.62
70909;BME280;58554;52.006;5.926;2023-04-15T02:49:08;100101.56;;;7.94;56.67
70909;BME280;58554;52.006;5.926;2023-04-15T02:51:37;100106.22;;;7.89;56.97
70909;BME280;58554;52.006;5.926;2023-04-15T02:54:04;100115.22;;;7.85;57.04
70909;BME280;58554;52.006;5.926;2023-04-15T02:56:30;100109.38;;;7.80;57.25
70909;BME280;58554;52.006;5.926;2023-04-15T02:58:56;100114.03;;;7.75;57.28
70909;BME280;58554;52.006;5.926;2023-04-15T03:01:23;100114.38;;;7.68;57.56
70909;BME280;58554;52.006;5.926;2023-04-15T03:03:49;100112.84;;;7.64;57.54
70909;BME280;58554;52.006;5.926;2023-04-15T03:06:16;100106.16;;;7.59;57.79
70909;BME280;58554;52.006;5.926;2023-04-15T03:08:45;100108.88;;;7.57;57.68
70909;BME280;58554;52.006;5.926;2023-04-15T03:11:11;100103.69;;;7.56;57.69
70909;BME280;58554;52.006;5.926;2023-04-15T03:13:40;100120.50;;;7.53;57.90
70909;BME280;58554;52.006;5.926;2023-04-15T03:16:07;100122.44;;;7.49;57.96
70909;BME280;58554;52.006;5.926;2023-04-15T03:18:33;100118.22;;;7.47;58.07
70909;BME280;58554;52.006;5.926;2023-04-15T03:21:00;100122.69;;;7.45;58.18
70909;BME280;58554;52.006;5.926;2023-04-15T03:23:26;100114.88;;;7.43;58.29
70909;BME280;58554;52.006;5.926;2023-04-15T03:25:55;100122.00;;;7.41;58.37
70909;BME280;58554;52.006;5.926;2023-04-15T03:28:22;100117.75;;;7.39;58.41
70909;BME280;58554;52.006;5.926;2023-04-15T03:30:48;100126.66;;;7.36;58.61
70909;BME280;58554;52.006;5.926;2023-04-15T03:33:15;100124.19;;;7.33;58.74
70909;BME280;58554;52.006;5.926;2023-04-15T03:35:41;100124.44;;;7.28;58.72
70909;BME280;58554;52.006;5.926;2023-04-15T03:38:08;100129.00;;;7.25;59.12
70909;BME280;58554;52.006;5.926;2023-04-15T03:40:35;100125.78;;;7.20;59.09
70909;BME280;58554;52.006;5.926;2023-04-15T03:43:04;100126.88;;;7.16;59.24
70909;BME280;58554;52.006;5.926;2023-04-15T03:45:30;100131.44;;;7.12;59.63
70909;BME280;58554;52.006;5.926;2023-04-15T03:47:57;100143.91;;;7.08;59.82
70909;BME280;58554;52.006;5.926;2023-04-15T03:50:23;100137.97;;;7.05;59.80
70909;BME280;58554;52.006;5.926;2023-04-15T03:52:50;100140.91;;;6.99;60.04
70909;BME280;58554;52.006;5.926;2023-04-15T03:55:16;100133.28;;;6.94;59.95
70909;BME280;58554;52.006;5.926;2023-04-15T03:57:43;100137.75;;;6.92;60.23
70909;BME280;58554;52.006;5.926;2023-04-15T04:00:12;100142.16;;;6.91;60.35
70909;BME280;58554;52.006;5.926;2023-04-15T04:02:39;100141.38;;;6.89;60.26
70909;BME280;58554;52.006;5.926;2023-04-15T04:05:05;100135.53;;;6.84;60.48
70909;BME280;58554;52.006;5.926;2023-04-15T04:07:33;100144.56;;;6.79;60.65
70909;BME280;58554;52.006;5.926;2023-04-15T04:09:59;100153.47;;;6.76;60.69
70909;BME280;58554;52.006;5.926;2023-04-15T04:12:26;100156.16;;;6.75;60.72
70909;BME280;58554;52.006;5.926;2023-04-15T04:14:52;100151.00;;;6.73;60.91
70909;BME280;58554;52.006;5.926;2023-04-15T04:17:21;100155.50;;;6.71;60.99
70909;BME280;58554;52.006;5.926;2023-04-15T04:19:47;100163.44;;;6.69;61.32
70909;BME280;58554;52.006;5.926;2023-04-15T04:22:14;100167.09;;;6.67;61.17
70909;BME280;58554;52.006;5.926;2023-04-15T04:24:40;100167.22;;;6.64;61.26
70909;BME280;58554;52.006;5.926;2023-04-15T04:27:07;100169.06;;;6.62;61.34
70909;BME280;58554;52.006;5.926;2023-04-15T04:29:34;100174.41;;;6.60;61.57
70909;BME280;58554;52.006;5.926;2023-04-15T04:32:00;100178.03;;;6.58;61.65
70909;BME280;58554;52.006;5.926;2023-04-15T04:34:29;100183.47;;;6.55;61.67
70909;BME280;58554;52.006;5.926;2023-04-15T04:36:56;100193.97;;;6.55;61.81
70909;BME280;58554;52.006;5.926;2023-04-15T04:39:22;100191.34;;;6.55;61.83
70909;BME280;58554;52.006;5.926;2023-04-15T04:41:49;100191.47;;;6.52;61.90
70909;BME280;58554;52.006;5.926;2023-04-15T04:44:15;100200.38;;;6.49;62.11
70909;BME280;58554;52.006;5.926;2023-04-15T04:46:42;100198.81;;;6.45;61.96
70909;BME280;58554;52.006;5.926;2023-04-15T04:49:08;100194.56;;;6.42;62.24
70909;BME280;58554;52.006;5.926;2023-04-15T04:51:37;100207.06;;;6.37;62.31
70909;BME280;58554;52.006;5.926;2023-04-15T04:54:04;100207.38;;;6.31;62.66
70909;BME280;58554;52.006;5.926;2023-04-15T04:56:30;100215.47;;;6.26;62.71
70909;BME280;58554;52.006;5.926;2023-04-15T04:58:57;100206.13;;;6.21;62.98
70909;BME280;58554;52.006;5.926;2023-04-15T05:01:23;100216.00;;;6.16;63.23
70909;BME280;58554;52.006;5.926;2023-04-15T05:03:50;100225.72;;;6.14;63.29
70909;BME280;58554;52.006;5.926;2023-04-15T05:06:16;100221.47;;;6.11;63.71
70909;BME280;58554;52.006;5.926;2023-04-15T05:08:45;100222.53;;;6.07;63.63
70909;BME280;58554;52.006;5.926;2023-04-15T05:11:12;100226.00;;;6.07;63.88
70909;BME280;58554;52.006;5.926;2023-04-15T05:13:38;100233.88;;;6.07;63.85
70909;BME280;58554;52.006;5.926;2023-04-15T05:16:05;100231.25;;;6.07;63.95
70909;BME280;58554;52.006;5.926;2023-04-15T05:18:32;100242.53;;;6.09;64.04
70909;BME280;58554;52.006;5.926;2023-04-15T05:20:59;100243.31;;;6.12;64.34
70909;BME280;58554;52.006;5.926;2023-04-15T05:23:27;100252.81;;;6.14;64.13
70909;BME280;58554;52.006;5.926;2023-04-15T05:25:56;100259.56;;;6.20;64.15
70909;BME280;58554;52.006;5.926;2023-04-15T05:28:23;100255.84;;;6.24;64.33
70909;BME280;58554;52.006;5.926;2023-04-15T05:30:49;100260.03;;;6.28;64.64
70909;BME280;58554;52.006;5.926;2023-04-15T05:33:16;100266.00;;;6.32;64.60
70909;BME280;58554;52.006;5.926;2023-04-15T05:35:42;100263.22;;;6.35;64.76
70909;BME280;58554;52.006;5.926;2023-04-15T05:38:09;100268.25;;;6.39;64.71
70909;BME280;58554;52.006;5.926;2023-04-15T05:40:35;100269.00;;;6.41;64.81
70909;BME280;58554;52.006;5.926;2023-04-15T05:43:05;100277.53;;;6.46;64.79
70909;BME280;58554;52.006;5.926;2023-04-15T05:45:31;100266.75;;;6.53;64.89
70909;BME280;58554;52.006;5.926;2023-04-15T05:47:57;100274.47;;;6.56;64.79
70909;BME280;58554;52.006;5.926;2023-04-15T05:50:24;100277.72;;;6.61;64.92
70909;BME280;58554;52.006;5.926;2023-04-15T05:52:50;100279.28;;;6.65;65.13
70909;BME280;58554;52.006;5.926;2023-04-15T05:55:17;100283.38;;;6.70;65.03
70909;BME280;58554;52.006;5.926;2023-04-15T05:57:43;100282.22;;;6.76;65.21
70909;BME280;58554;52.006;5.926;2023-04-15T06:00:13;100287.19;;;6.82;65.39
70909;BME280;58554;52.006;5.926;2023-04-15T06:02:40;100282.47;;;6.89;65.53
70909;BME280;58554;52.006;5.926;2023-04-15T06:05:07;100283.88;;;6.96;65.60
70909;BME280;58554;52.006;5.926;2023-04-15T06:07:34;100290.50;;;7.03;65.61
70909;BME280;58554;52.006;5.926;2023-04-15T06:10:01;100301.56;;;7.10;65.84
70909;BME280;58554;52.006;5.926;2023-04-15T06:12:28;100306.50;;;7.16;65.83
70909;BME280;58554;52.006;5.926;2023-04-15T06:14:54;100304.59;;;7.20;65.89
70909;BME280;58554;52.006;5.926;2023-04-15T06:17:23;100313.94;;;7.25;65.92
70909;BME280;58554;52.006;5.926;2023-04-15T06:19:50;100323.44;;;7.28;65.89
70909;BME280;58554;52.006;5.926;2023-04-15T06:22:16;100323.38;;;7.29;65.90
70909;BME280;58554;52.006;5.926;2023-04-15T06:24:43;100321.53;;;7.31;65.94
70909;BME280;58554;52.006;5.926;2023-04-15T06:27:09;100331.03;;;7.34;66.06
70909;BME280;58554;52.006;5.926;2023-04-15T06:29:36;100337.00;;;7.38;65.95
70909;BME280;58554;52.006;5.926;2023-04-15T06:32:02;100336.06;;;7.39;65.76
70909;BME280;58554;52.006;5.926;2023-04-15T06:34:31;100341.25;;;7.40;65.78
70909;BME280;58554;52.006;5.926;2023-04-15T06:36:58;100343.84;;;7.42;65.53
70909;BME280;58554;52.006;5.926;2023-04-15T06:39:24;100350.94;;;7.40;65.43
70909;BME280;58554;52.006;5.926;2023-04-15T06:41:51;100361.31;;;7.43;65.62
70909;BME280;58554;52.006;5.926;2023-04-15T06:44:18;100356.88;;;7.43;65.44
70909;BME280;58554;52.006;5.926;2023-04-15T06:46:44;100354.19;;;7.45;65.57
70909;BME280;58554;52.006;5.926;2023-04-15T06:49:11;100363.69;;;7.47;65.39
70909;BME280;58554;52.006;5.926;2023-04-15T06:51:41;100364.56;;;7.48;65.62
70909;BME280;58554;52.006;5.926;2023-04-15T06:54:08;100369.66;;;7.51;65.45
70909;BME280;58554;52.006;5.926;2023-04-15T06:56:34;100366.19;;;7.50;65.66
70909;BME280;58554;52.006;5.926;2023-04-15T06:59:01;100377.56;;;7.51;65.40
70909;BME280;58554;52.006;5.926;2023-04-15T07:01:27;100388.09;;;7.51;65.74
70909;BME280;58554;52.006;5.926;2023-04-15T07:03:54;100380.13;;;7.53;65.54
70909;BME280;58554;52.006;5.926;2023-04-15T07:06:20;100378.50;;;7.50;65.62
70909;BME280;58554;52.006;5.926;2023-04-15T07:08:49;100390.72;;;7.51;65.60
70909;BME280;58554;52.006;5.926;2023-04-15T07:11:16;100394.03;;;7.55;65.57
70909;BME280;58554;52.006;5.926;2023-04-15T07:13:42;100395.72;;;7.56;65.58
70909;BME280;58554;52.006;5.926;2023-04-15T07:16:09;100407.88;;;7.58;65.85
70909;BME280;58554;52.006;5.926;2023-04-15T07:18:35;100398.22;;;7.59;65.55
70909;BME280;58554;52.006;5.926;2023-04-15T07:21:02;100404.94;;;7.64;65.72
70909;BME280;58554;52.006;5.926;2023-04-15T07:23:29;100403.94;;;7.67;65.58
70909;BME280;58554;52.006;5.926;2023-04-15T07:25:58;100408.19;;;7.69;65.74
70909;BME280;58554;52.006;5.926;2023-04-15T07:28:25;100415.06;;;7.72;65.91
70909;BME280;58554;52.006;5.926;2023-04-15T07:30:51;100417.63;;;7.74;65.75
70909;BME280;58554;52.006;5.926;2023-04-15T07:33:18;100421.75;;;7.79;65.67
70909;BME280;58554;52.006;5.926;2023-04-15T07:35:44;100420.72;;;7.82;65.97
70909;BME280;58554;52.006;5.926;2023-04-15T07:38:11;100424.72;;;7.89;65.77
70909;BME280;58554;52.006;5.926;2023-04-15T07:40:37;100424.50;;;7.94;65.97
70909;BME280;58554;52.006;5.926;2023-04-15T07:43:07;100432.94;;;8.00;65.74
70909;BME280;58554;52.006;5.926;2023-04-15T07:45:33;100424.72;;;8.06;65.92
70909;BME280;58554;52.006;5.926;2023-04-15T07:48:00;100431.38;;;8.14;65.69
70909;BME280;58554;52.006;5.926;2023-04-15T07:50:27;100436.25;;;8.21;65.50
70909;BME280;58554;52.006;5.926;2023-04-15T07:52:54;100438.38;;;8.30;65.86
70909;BME280;58554;52.006;5.926;2023-04-15T07:55:20;100429.03;;;8.41;65.77
70909;BME280;58554;52.006;5.926;2023-04-15T07:57:48;100431.19;;;8.50;65.62
70909;BME280;58554;52.006;5.926;2023-04-15T08:00:18;100444.72;;;8.60;65.23
70909;BME280;58554;52.006;5.926;2023-04-15T08:02:44;100446.94;;;8.67;65.46
70909;BME280;58554;52.006;5.926;2023-04-15T08:05:12;100450.09;;;8.74;64.94
70909;BME280;58554;52.006;5.926;2023-04-15T08:07:38;100456.81;;;8.80;65.11
70909;BME280;58554;52.006;5.926;2023-04-15T08:10:07;100449.22;;;8.89;65.02
70909;BME280;58554;52.006;5.926;2023-04-15T08:12:34;100451.38;;;8.99;64.78
70909;BME280;58554;52.006;5.926;2023-04-15T08:15:00;100452.63;;;9.07;64.67
70909;BME280;58554;52.006;5.926;2023-04-15T08:17:29;100460.28;;;9.12;64.38
70909;BME280;58554;52.006;5.926;2023-04-15T08:19:56;100459.00;;;9.19;64.16
70909;BME280;58554;52.006;5.926;2023-04-15T08:22:22;100467.50;;;9.24;63.89
70909;BME280;58554;52.006;5.926;2023-04-15T08:24:49;100462.91;;;9.28;63.63
70909;BME280;58554;52.006;5.926;2023-04-15T08:27:15;100460.22;;;9.29;63.60
70909;BME280;58554;52.006;5.926;2023-04-15T08:29:42;100464.22;;;9.37;63.44
70909;BME280;58554;52.006;5.926;2023-04-15T08:32:08;100459.63;;;9.40;63.47
70909;BME280;58554;52.006;5.926;2023-04-15T08:34:37;100467.09;;;9.48;63.38
70909;BME280;58554;52.006;5.926;2023-04-15T08:37:04;100474.63;;;9.54;63.17
70909;BME280;58554;52.006;5.926;2023-04-15T08:39:30;100471.56;;;9.62;63.35
70909;BME280;58554;52.006;5.926;2023-04-15T08:42:00;100479.81;;;9.71;63.22
70909;BME280;58554;52.006;5.926;2023-04-15T08:44:28;100484.13;;;9.72;62.71
70909;BME280;58554;52.006;5.926;2023-04-15T08:47:00;100486.69;;;9.74;62.85
70909;BME280;58554;52.006;5.926;2023-04-15T08:49:28;100494.34;;;9.79;62.68
70909;BME280;58554;52.006;5.926;2023-04-15T08:51:58;100485.28;;;9.83;62.97
70909;BME280;58554;52.006;5.926;2023-04-15T08:54:25;100490.22;;;9.89;62.59
70909;BME280;58554;52.006;5.926;2023-04-15T08:56:52;100498.72;;;9.94;62.18
70909;BME280;58554;52.006;5.926;2023-04-15T08:59:20;100494.28;;;9.94;62.12
70909;BME280;58554;52.006;5.926;2023-04-15T09:01:47;100507.13;;;10.01;62.09
70909;BME280;58554;52.006;5.926;2023-04-15T09:04:15;100506.03;;;10.05;62.25
70909;BME280;58554;52.006;5.926;2023-04-15T09:06:42;100510.94;;;10.11;62.31
70909;BME280;58554;52.006;5.926;2023-04-15T09:09:11;100510.66;;;10.16;62.18
70909;BME280;58554;52.006;5.926;2023-04-15T09:11:38;100508.84;;;10.16;62.10
70909;BME280;58554;52.006;5.926;2023-04-15T09:14:04;100511.50;;;10.16;61.96
70909;BME280;58554;52.006;5.926;2023-04-15T09:16:32;100506.81;;;10.21;61.88
70909;BME280;58554;52.006;5.926;2023-04-15T09:19:23;100521.25;;;10.30;61.96
70909;BME280;58554;52.006;5.926;2023-04-15T09:21:50;100527.00;;;10.37;61.70
70909;BME280;58554;52.006;5.926;2023-04-15T09:24:21;100525.88;;;10.41;61.47
70909;BME280;58554;52.006;5.926;2023-04-15T09:26:51;100531.75;;;10.46;61.57
70909;BME280;58554;52.006;5.926;2023-04-15T09:29:20;100527.13;;;10.49;61.45
70909;BME280;58554;52.006;5.926;2023-04-15T09:31:50;100535.63;;;10.54;61.78
70909;BME280;58554;52.006;5.926;2023-04-15T09:34:16;100531.75;;;10.60;61.61
70909;BME280;58554;52.006;5.926;2023-04-15T09:36:52;100539.03;;;10.71;61.91
70909;BME280;58554;52.006;5.926;2023-04-15T09:39:21;100526.28;;;10.78;61.34
70909;BME280;58554;52.006;5.926;2023-04-15T09:42:04;100531.28;;;10.82;61.37
70909;BME280;58554;52.006;5.926;2023-04-15T09:44:30;100531.06;;;10.85;61.31
70909;BME280;58554;52.006;5.926;2023-04-15T09:46:57;100546.81;;;10.88;60.72
70909;BME280;58554;52.006;5.926;2023-04-15T09:49:23;100541.31;;;10.91;60.82
70909;BME280;58554;52.006;5.926;2023-04-15T09:51:50;100548.13;;;10.95;61.14
70909;BME280;58554;52.006;5.926;2023-04-15T09:54:20;100549.53;;;11.01;60.56
70909;BME280;58554;52.006;5.926;2023-04-15T09:56:47;100547.47;;;11.06;60.54
70909;BME280;58554;52.006;5.926;2023-04-15T09:59:13;100560.69;;;11.06;60.01
70909;BME280;58554;52.006;5.926;2023-04-15T10:01:41;100558.31;;;11.02;60.36
70909;BME280;58554;52.006;5.926;2023-04-15T10:04:08;100559.28;;;11.01;60.62
70909;BME280;58554;52.006;5.926;2023-04-15T10:06:35;100554.81;;;11.01;60.90
70909;BME280;58554;52.006;5.926;2023-04-15T10:09:02;100559.81;;;11.06;60.87
70909;BME280;58554;52.006;5.926;2023-04-15T10:11:34;100562.28;;;11.09;60.88
70909;BME280;58554;52.006;5.926;2023-04-15T10:14:01;100561.03;;;11.14;60.95
70909;BME280;58554;52.006;5.926;2023-04-15T10:16:31;100564.16;;;11.21;60.77
70909;BME280;58554;52.006;5.926;2023-04-15T10:19:01;100570.09;;;11.25;60.14
70909;BME280;58554;52.006;5.926;2023-04-15T10:21:29;100569.25;;;11.24;60.11
70909;BME280;58554;52.006;5.926;2023-04-15T10:23:57;100581.56;;;11.25;60.17
70909;BME280;58554;52.006;5.926;2023-04-15T10:26:24;100572.56;;;11.28;60.48
70909;BME280;58554;52.006;5.926;2023-04-15T10:28:56;100569.44;;;11.35;60.84
70909;BME280;58554;52.006;5.926;2023-04-15T10:31:24;100583.97;;;11.43;60.33
70909;BME280;58554;52.006;5.926;2023-04-15T10:33:51;100580.28;;;11.45;59.63
70909;BME280;58554;52.006;5.926;2023-04-15T10:36:19;100569.59;;;11.47;59.88
70909;BME280;58554;52.006;5.926;2023-04-15T10:38:46;100577.13;;;11.53;59.89
70909;BME280;58554;52.006;5.926;2023-04-15T10:41:17;100576.66;;;11.61;59.75
70909;BME280;58554;52.006;5.926;2023-04-15T10:43:48;100580.41;;;11.71;59.93
70909;BME280;58554;52.006;5.926;2023-04-15T10:46:21;100576.00;;;11.84;59.81
70909;BME280;58554;52.006;5.926;2023-04-15T10:48:51;100591.84;;;11.99;59.90
70909;BME280;58554;52.006;5.926;2023-04-15T10:51:29;100591.03;;;12.11;59.08
70909;BME280;58554;52.006;5.926;2023-04-15T10:53:58;100596.94;;;12.14;59.14
70909;BME280;58554;52.006;5.926;2023-04-15T10:56:27;100593.34;;;12.15;58.72
70909;BME280;58554;52.006;5.926;2023-04-15T10:58:54;100589.97;;;12.13;58.17
70909;BME280;58554;52.006;5.926;2023-04-15T11:01:51;100597.16;;;12.11;57.85
70909;BME280;58554;52.006;5.926;2023-04-15T11:04:50;100605.78;;;12.15;57.92
70909;BME280;58554;52.006;5.926;2023-04-15T11:07:33;100595.25;;;12.13;58.32
70909;BME280;58554;52.006;5.926;2023-04-15T11:10:48;100597.59;;;12.18;58.12
70909;BME280;58554;52.006;5.926;2023-04-15T11:13:19;100591.13;;;12.22;57.95
70909;BME280;58554;52.006;5.926;2023-04-15T11:15:58;100597.84;;;12.28;57.78
70909;BME280;58554;52.006;5.926;2023-04-15T11:18:31;100589.69;;;12.31;57.75
70909;BME280;58554;52.006;5.926;2023-04-15T11:21:03;100597.47;;;12.34;57.47
70909;BME280;58554;52.006;5.926;2023-04-15T11:23:39;100594.59;;;12.37;56.94
70909;BME280;58554;52.006;5.926;2023-04-15T11:26:08;100603.50;;;12.36;56.48
70909;BME280;58554;52.006;5.926;2023-04-15T11:28:37;100605.09;;;12.39;56.55
70909;BME280;58554;52.006;5.926;2023-04-15T11:31:06;100614.53;;;12.43;56.61
70909;BME280;58554;52.006;5.926;2023-04-15T11:33:38;100611.59;;;12.47;56.54
70909;BME280;58554;52.006;5.926;2023-04-15T11:36:10;100604.19;;;12.52;56.64
70909;BME280;58554;52.006;5.926;2023-04-15T11:38:41;100613.63;;;12.56;56.57
70909;BME280;58554;52.006;5.926;2023-04-15T11:41:08;100611.59;;;12.60;56.26
70909;BME280;58554;52.006;5.926;2023-04-15T11:43:35;100625.59;;;12.62;55.69
70909;BME280;58554;52.006;5.926;2023-04-15T11:46:02;100618.69;;;12.60;55.75
70909;BME280;58554;52.006;5.926;2023-04-15T11:48:30;100617.22;;;12.55;55.38
70909;BME280;58554;52.006;5.926;2023-04-15T11:51:01;100625.16;;;12.55;55.34
70909;BME280;58554;52.006;5.926;2023-04-15T11:53:36;100626.66;;;12.60;55.68
70909;BME280;58554;52.006;5.926;2023-04-15T11:56:06;100635.91;;;12.67;55.94
70909;BME280;58554;52.006;5.926;2023-04-15T11:58:35;100629.22;;;12.74;55.20
70909;BME280;58554;52.006;5.926;2023-04-15T12:01:03;100634.34;;;12.77;54.90
70909;BME280;58554;52.006;5.926;2023-04-15T12:03:36;100626.06;;;12.82;54.91
70909;BME280;58554;52.006;5.926;2023-04-15T12:06:15;100634.94;;;12.81;54.58
70909;BME280;58554;52.006;5.926;2023-04-15T12:09:06;100635.78;;;12.81;53.93
70909;BME280;58554;52.006;5.926;2023-04-15T12:11:39;100648.31;;;12.79;54.38
70909;BME280;58554;52.006;5.926;2023-04-15T12:14:10;100641.56;;;12.75;54.56
70909;BME280;58554;52.006;5.926;2023-04-15T12:16:40;100649.81;;;12.70;54.81
70909;BME280;58554;52.006;5.926;2023-04-15T12:19:10;100648.13;;;12.69;55.05
70909;BME280;58554;52.006;5.926;2023-04-15T12:21:43;100640.81;;;12.73;54.87
70909;BME280;58554;52.006;5.926;2023-04-15T12:24:11;100653.84;;;12.76;54.93
70909;BME280;58554;52.006;5.926;2023-04-15T12:26:43;100650.03;;;12.80;54.81
70909;BME280;58554;52.006;5.926;2023-04-15T12:29:13;100649.50;;;12.88;54.86
70909;BME280;58554;52.006;5.926;2023-04-15T12:31:48;100657.16;;;12.92;54.67
70909;BME280;58554;52.006;5.926;2023-04-15T12:34:16;100649.94;;;12.94;54.64
70909;BME280;58554;52.006;5.926;2023-04-15T12:36:46;100664.78;;;12.97;54.61
70909;BME280;58554;52.006;5.926;2023-04-15T12:39:13;100655.00;;;12.97;54.40
70909;BME280;58554;52.006;5.926;2023-04-15T12:41:39;100659.28;;;13.00;54.61
70909;BME280;58554;52.006;5.926;2023-04-15T12:44:06;100662.88;;;12.99;54.26
70909;BME280;58554;52.006;5.926;2023-04-15T12:46:33;100683.19;;;13.00;54.51
70909;BME280;58554;52.006;5.926;2023-04-15T12:49:00;100683.50;;;13.08;54.29
70909;BME280;58554;52.006;5.926;2023-04-15T12:51:26;100677.97;;;13.11;54.06
70909;BME280;58554;52.006;5.926;2023-04-15T12:53:55;100677.13;;;13.11;53.85
70909;BME280;58554;52.006;5.926;2023-04-15T12:56:22;100685.19;;;13.09;53.64
70909;BME280;58554;52.006;5.926;2023-04-15T12:58:49;100685.28;;;13.08;53.66
70909;BME280;58554;52.006;5.926;2023-04-15T13:01:15;100700.38;;;13.07;53.61
70909;BME280;58554;52.006;5.926;2023-04-15T13:03:42;100702.28;;;13.05;53.30